Avera, Georgia
Current Conditions -  °F | °C
As of 4:55 PM on Thursday 27 Nov 2014 (Local Time) from KOKZ Reporting Station
Clear Clear  
Wind Chill:   Ceiling: Unl
Heat Index:   Visibility: 10mi
Dew Point: -1°   Wind: 10mph
Humidity: 51%   Direction: 310°NW
Pressure: 30.27"   Gusts: 16mph
Location:  33.19°N, 82.53°W
Report Text: KOKZ 272155Z AUTO 31009G14KT 10SM CLR 09/M01 A3027 RMK AO2 T00921006
Loading
Personal Weather Stations






























Interactive Weather Map New forecast layout! Learn more

10-Day Weather Forecast

Advertisements
Track Severe Weather on mobile